Time;durP1;ratioP1;P1;durP2;ratioP2;P2;SDS_P1;SDS_P2;PMS_P1;PMS_P2;Temp;Humidity;BMP_temperature;BMP_pressure;BME280_temperature;BME280_humidity;BME280_pressure;Samples;Min_cycle;Max_cycle;Signal;HPM_P1;HPM_P2
2021/01/06 00:03:30;;;;;;;14.80;6.78;;;;;;;0.73;61.72;99863.16;10422259;28;20077;-54
2021/01/06 00:08:33;;;;;;;15.75;7.07;;;;;;;0.79;61.21;99865.47;10422295;28;20084;-55
2021/01/06 00:13:34;;;;;;;18.95;7.25;;;;;;;0.83;61.22;99861.00;10423166;28;20052;-54
2021/01/06 00:18:36;;;;;;;19.45;7.35;;;;;;;0.76;61.25;99855.25;10423865;28;20076;-54
2021/01/06 00:23:39;;;;;;;22.88;8.70;;;;;;;0.64;61.49;99850.59;10422068;28;20072;-54
2021/01/06 00:28:40;;;;;;;22.40;9.20;;;;;;;0.55;61.19;99851.00;10422488;28;20057;-55
2021/01/06 00:33:42;;;;;;;22.38;9.35;;;;;;;0.44;61.14;99844.53;10422090;28;20367;-55
2021/01/06 00:38:44;;;;;;;19.92;6.55;;;;;;;0.28;61.55;99843.47;10421528;28;20055;-55
2021/01/06 00:43:47;;;;;;;22.88;8.75;;;;;;;0.21;61.83;99852.38;10420786;28;20549;-55
2021/01/06 00:48:49;;;;;;;21.90;8.88;;;;;;;0.19;62.05;99846.44;10420568;28;20056;-55
2021/01/06 00:53:51;;;;;;;15.10;6.38;;;;;;;0.19;61.82;99843.84;10420814;28;20045;-57
2021/01/06 00:58:53;;;;;;;17.90;7.38;;;;;;;0.25;62.37;99837.56;10421572;28;20087;-57
2021/01/06 01:03:55;;;;;;;16.40;7.38;;;;;;;0.37;61.94;99827.59;10422168;28;20087;-55
2021/01/06 01:08:59;;;;;;;22.63;9.52;;;;;;;0.43;61.72;99822.16;10420304;28;20403;-54
2021/01/06 01:14:00;;;;;;;20.17;7.40;;;;;;;0.55;61.53;99831.13;10421413;28;20501;-54
2021/01/06 01:19:02;;;;;;;22.05;9.60;;;;;;;0.35;61.89;99826.81;10418911;28;20053;-56
2021/01/06 01:24:06;;;;;;;24.50;9.45;;;;;;;0.27;62.15;99818.50;10418716;28;20057;-54
2021/01/06 01:29:08;;;;;;;25.13;10.55;;;;;;;0.16;62.40;99812.97;10419627;28;20488;-55
2021/01/06 01:34:09;;;;;;;19.02;7.38;;;;;;;0.19;62.05;99824.00;10418197;28;20049;-55
2021/01/06 01:39:12;;;;;;;14.82;5.43;;;;;;;0.10;61.79;99816.63;10419676;28;20064;-57
2021/01/06 01:44:14;;;;;;;22.92;7.07;;;;;;;-0.02;62.03;99809.38;10418461;28;20115;-54
2021/01/06 01:49:21;;;;;;;23.40;8.77;;;;;;;0.02;62.04;99804.91;10418144;28;20061;-57
2021/01/06 01:54:26;;;;;;;13.45;5.18;;;;;;;-0.01;61.61;99798.94;10418172;28;20358;-54
2021/01/06 01:59:35;;;;;;;21.20;8.57;;;;;;;-0.17;62.21;99794.47;10418464;28;20068;-55
2021/01/06 02:04:44;;;;;;;25.65;10.27;;;;;;;-0.14;61.96;99777.09;10418217;28;20049;-54
2021/01/06 02:09:54;;;;;;;24.73;9.65;;;;;;;-0.17;62.16;99782.38;10420665;28;20053;-54
2021/01/06 02:15:06;;;;;;;27.23;12.38;;;;;;;-0.01;61.85;99780.03;10419061;28;20037;-54
2021/01/06 02:20:16;;;;;;;36.53;14.30;;;;;;;0.13;61.31;99776.88;10418205;28;20057;-54
2021/01/06 02:25:21;;;;;;;33.78;13.57;;;;;;;0.19;60.87;99777.47;10418654;28;20122;-55
2021/01/06 02:30:24;;;;;;;36.22;14.48;;;;;;;0.32;60.73;99767.47;10417291;28;20145;-55
2021/01/06 02:35:26;;;;;;;40.58;14.13;;;;;;;0.34;60.44;99764.78;10432580;28;20059;-55
2021/01/06 02:40:28;;;;;;;35.22;14.70;;;;;;;0.43;60.75;99754.91;10418906;28;20057;-55
2021/01/06 02:45:30;;;;;;;43.23;14.97;;;;;;;0.47;60.81;99754.78;10417579;28;20049;-54
2021/01/06 02:50:33;;;;;;;36.25;15.00;;;;;;;0.43;60.61;99749.75;10415950;28;20574;-55
2021/01/06 02:55:39;;;;;;;43.08;16.23;;;;;;;0.51;60.68;99753.75;10416316;28;20048;-55
2021/01/06 03:00:40;;;;;;;37.55;14.73;;;;;;;0.52;60.19;99745.06;10417170;28;20084;-54
2021/01/06 03:05:47;;;;;;;37.95;17.08;;;;;;;0.49;60.54;99742.59;10416169;28;20045;-55
2021/01/06 03:10:50;;;;;;;44.17;16.60;;;;;;;0.56;60.62;99736.28;10419088;28;20053;-53
2021/01/06 03:15:52;;;;;;;38.53;14.15;;;;;;;0.51;60.15;99739.06;10420630;28;20052;-54
2021/01/06 03:21:00;;;;;;;38.63;15.05;;;;;;;0.42;60.71;99726.53;10425099;28;20060;-54
2021/01/06 03:26:07;;;;;;;40.78;17.35;;;;;;;0.35;60.89;99736.28;10424776;28;20390;-54
2021/01/06 03:31:14;;;;;;;35.15;14.00;;;;;;;0.44;60.65;99732.47;10440780;28;20434;-55
2021/01/06 03:36:21;;;;;;;36.30;12.50;;;;;;;0.48;60.53;99738.34;10425881;28;20045;-54
2021/01/06 03:41:25;;;;;;;38.03;15.05;;;;;;;0.51;60.58;99733.06;10425236;28;20053;-54
2021/01/06 03:46:33;;;;;;;30.63;13.23;;;;;;;0.61;60.79;99734.31;10425744;28;20504;-59
2021/01/06 03:51:41;;;;;;;29.33;12.57;;;;;;;0.57;60.72;99737.97;10424110;28;20060;-54
2021/01/06 03:56:45;;;;;;;36.50;13.60;;;;;;;0.57;60.52;99730.19;10424284;28;20049;-55
2021/01/06 04:01:58;;;;;;;28.27;12.85;;;;;;;0.63;60.53;99732.50;10422693;28;20081;-53
2021/01/06 04:07:02;;;;;;;22.70;10.53;;;;;;;0.58;60.45;99727.53;10422430;28;20052;-55
2021/01/06 04:12:09;;;;;;;25.45;10.95;;;;;;;0.51;60.76;99725.28;10422970;28;20053;-54
2021/01/06 04:17:18;;;;;;;29.13;10.68;;;;;;;0.60;60.74;99724.88;10422394;28;20103;-52
2021/01/06 04:22:24;;;;;;;24.52;10.75;;;;;;;0.64;60.84;99718.66;10421778;28;20119;-55
2021/01/06 04:27:27;;;;;;;27.25;12.15;;;;;;;0.64;61.29;99723.84;10420405;28;20057;-55
2021/01/06 04:32:32;;;;;;;25.88;9.90;;;;;;;0.76;60.61;99731.06;10420822;28;20049;-54
2021/01/06 04:37:33;;;;;;;24.98;10.35;;;;;;;0.93;60.70;99732.06;10421213;28;20041;-54
2021/01/06 04:42:37;;;;;;;21.92;9.80;;;;;;;1.13;59.86;99729.41;10420699;28;20053;-54
2021/01/06 04:48:15;;;;;;;21.08;9.20;;;;;;;1.20;60.20;99723.03;10421733;28;20406;-54
2021/01/06 04:53:26;;;;;;;22.33;8.73;;;;;;;1.33;59.58;99721.56;10387457;28;20057;-56
2021/01/06 04:58:43;;;;;;;20.13;8.68;;;;;;;1.38;59.85;99726.50;10422512;28;20144;-55
2021/01/06 05:04:03;;;;;;;25.33;11.02;;;;;;;1.48;59.45;99724.31;10420194;28;20045;-54
2021/01/06 05:09:13;;;;;;;23.13;9.45;;;;;;;1.44;59.39;99718.44;10420402;28;20041;-55
2021/01/06 05:14:19;;;;;;;20.88;8.52;;;;;;;1.37;59.40;99712.72;10420973;28;20140;-55
2021/01/06 05:19:23;;;;;;;18.50;7.95;;;;;;;1.24;59.50;99710.78;10419612;28;20041;-56
2021/01/06 05:24:28;;;;;;;24.02;9.60;;;;;;;1.11;59.55;99706.19;10421072;28;20052;-53
2021/01/06 05:29:31;;;;;;;21.08;9.45;;;;;;;1.03;59.45;99715.19;10423529;28;20037;-53
2021/01/06 05:34:35;;;;;;;22.33;8.93;;;;;;;1.05;59.89;99721.16;10418453;28;20060;-56
2021/01/06 05:39:37;;;;;;;27.40;9.90;;;;;;;1.11;59.39;99724.31;10420393;28;20046;-54
2021/01/06 05:44:39;;;;;;;25.50;10.77;;;;;;;1.24;59.20;99706.44;10419013;28;20402;-54
2021/01/06 05:49:41;;;;;;;21.42;8.63;;;;;;;1.24;59.18;99711.63;10418872;28;20140;-56
2021/01/06 05:54:46;;;;;;;21.42;9.70;;;;;;;1.28;59.39;99715.75;10417904;28;20060;-55
2021/01/06 06:00:14;;;;;;;24.88;9.80;;;;;;;1.38;59.38;99714.38;10418417;28;20478;-54
2021/01/06 06:05:32;;;;;;;20.17;9.02;;;;;;;1.36;59.58;99710.22;10419423;28;20045;-54
2021/01/06 06:10:59;;;;;;;28.23;11.68;;;;;;;1.36;59.95;99710.22;10419279;28;20045;-54
2021/01/06 06:16:25;;;;;;;23.17;10.00;;;;;;;1.26;59.67;99707.22;10421039;28;20415;-57
2021/01/06 06:21:35;;;;;;;21.17;9.27;;;;;;;1.29;59.53;99709.66;10417562;28;20049;-55
2021/01/06 06:26:45;;;;;;;26.17;11.13;;;;;;;1.25;59.43;99700.34;10418459;28;20112;-52
2021/01/06 06:31:52;;;;;;;26.58;10.55;;;;;;;1.20;59.09;99702.31;10417937;28;20053;-56
2021/01/06 06:37:05;;;;;;;26.48;11.35;;;;;;;1.18;59.56;99701.56;10418134;28;20041;-56
2021/01/06 06:42:24;;;;;;;29.53;11.97;;;;;;;1.21;59.64;99701.41;10417378;28;20049;-55
2021/01/06 06:47:45;;;;;;;28.45;11.32;;;;;;;1.27;59.35;99695.94;10417357;28;20107;-55
2021/01/06 06:52:57;;;;;;;29.35;11.85;;;;;;;1.26;60.11;99699.44;10422261;28;20041;-55
2021/01/06 06:58:20;;;;;;;25.55;11.00;;;;;;;1.37;60.06;99701.53;10426753;28;20090;-53
2021/01/06 07:03:26;;;;;;;28.83;11.35;;;;;;;1.50;59.50;99700.00;10425095;28;20072;-55
2021/01/06 07:08:30;;;;;;;26.35;12.23;;;;;;;1.57;59.52;99692.78;10424445;28;20462;-55
2021/01/06 07:13:34;;;;;;;23.70;10.60;;;;;;;1.28;59.94;99702.78;10426280;28;20053;-54
2021/01/06 07:18:41;;;;;;;23.25;10.43;;;;;;;1.17;60.87;99699.88;10425108;28;20111;-55
2021/01/06 07:23:48;;;;;;;25.45;10.77;;;;;;;1.34;60.80;99686.97;10425099;28;20463;-54
2021/01/06 07:28:59;;;;;;;16.40;7.00;;;;;;;1.49;59.47;99693.16;10424862;28;20053;-54
2021/01/06 07:34:05;;;;;;;18.75;7.65;;;;;;;1.48;59.75;99701.00;10425753;28;20041;-56
2021/01/06 07:39:18;;;;;;;22.10;8.15;;;;;;;1.44;59.61;99702.06;10425223;28;20148;-55
2021/01/06 07:44:27;;;;;;;21.25;9.55;;;;;;;1.46;59.26;99708.03;10424252;28;20045;-54
2021/01/06 07:49:43;;;;;;;19.75;8.45;;;;;;;1.58;59.35;99710.84;10424618;28;20418;-56
2021/01/06 07:54:51;;;;;;;20.23;8.95;;;;;;;1.78;59.46;99698.69;10423516;28;20041;-54
2021/01/06 07:59:56;;;;;;;18.95;9.07;;;;;;;1.95;59.36;99710.81;10423163;28;20061;-55
2021/01/06 08:05:15;;;;;;;21.75;9.20;;;;;;;2.24;59.49;99715.38;10422741;28;20053;-53
2021/01/06 08:10:25;;;;;;;20.45;8.35;;;;;;;2.59;58.77;99707.56;10422503;28;20049;-54
2021/01/06 08:15:30;;;;;;;24.08;10.45;;;;;;;2.84;58.57;99707.09;10437178;28;20038;-55
2021/01/06 08:20:38;;;;;;;21.45;9.85;;;;;;;2.97;58.31;99713.28;10422559;28;20136;-54
2021/01/06 08:25:40;;;;;;;23.08;10.65;;;;;;;2.98;58.28;99709.78;10422724;28;20052;-56
2021/01/06 08:30:42;;;;;;;23.08;10.20;;;;;;;3.10;58.06;99704.84;10422256;28;20049;-61
2021/01/06 08:35:49;;;;;;;24.55;11.07;;;;;;;3.12;57.54;99693.44;10437012;28;20055;-56
2021/01/06 08:40:50;;;;;;;22.27;10.60;;;;;;;3.19;57.77;99696.53;10421713;28;20485;-55
2021/01/06 08:45:54;;;;;;;23.10;10.45;;;;;;;3.37;57.76;99697.28;10421204;28;20051;-55
2021/01/06 08:51:06;;;;;;;21.05;9.43;;;;;;;3.49;57.29;99686.22;10420015;28;20078;-55
2021/01/06 08:56:11;;;;;;;29.88;12.90;;;;;;;3.42;58.07;99684.91;10420396;28;20397;-55
2021/01/06 09:01:30;;;;;;;26.75;11.52;;;;;;;3.40;57.27;99671.16;10419521;28;20430;-61
2021/01/06 09:06:33;;;;;;;26.90;13.30;;;;;;;3.45;56.80;99666.53;10420459;28;20041;-55
2021/01/06 09:11:47;;;;;;;31.17;14.27;;;;;;;3.44;57.46;99665.66;10419902;28;20056;-55
2021/01/06 09:16:52;;;;;;;35.35;15.23;;;;;;;3.54;57.48;99653.03;10419713;28;20057;-55
2021/01/06 09:21:56;;;;;;;36.97;14.98;;;;;;;3.37;57.29;99650.53;10419119;28;20166;-56
2021/01/06 09:27:02;;;;;;;39.47;16.27;;;;;;;3.38;57.42;99647.00;10419645;28;20056;-56
2021/01/06 09:32:10;;;;;;;38.75;16.27;;;;;;;3.45;57.62;99637.94;10419631;28;20088;-55
2021/01/06 09:37:19;;;;;;;33.90;16.70;;;;;;;3.44;57.48;99638.84;10420121;28;20451;-56
2021/01/06 09:42:21;;;;;;;36.30;16.30;;;;;;;3.31;56.87;99648.28;10420335;28;20049;-55
2021/01/06 09:47:28;;;;;;;36.00;15.90;;;;;;;3.35;57.58;99634.19;10418848;28;20045;-56
2021/01/06 09:52:34;;;;;;;41.45;17.25;;;;;;;3.39;57.58;99638.28;10419650;28;20475;-54
2021/01/06 09:57:38;;;;;;;41.35;18.00;;;;;;;3.60;57.20;99639.69;10419170;28;20394;-55
2021/01/06 10:02:47;;;;;;;;;;;;;;;3.68;56.48;99645.25;10417755;28;20127;-55
2021/01/06 10:07:56;;;;;;;37.15;16.02;;;;;;;3.60;56.85;99639.69;10417821;28;19990;-55
2021/01/06 10:13:05;;;;;;;36.70;17.00;;;;;;;3.64;56.37;99628.16;10417652;28;20060;-55
2021/01/06 10:18:25;;;;;;;35.47;16.27;;;;;;;3.55;55.94;99623.50;10433633;28;20051;-54
2021/01/06 10:23:39;;;;;;;41.00;15.75;;;;;;;3.38;56.79;99626.22;10433349;28;20114;-55
2021/01/06 10:28:44;;;;;;;37.95;15.65;;;;;;;3.40;56.34;99627.81;10417073;28;20052;-53
2021/01/06 10:34:07;;;;;;;32.47;15.70;;;;;;;3.43;56.44;99629.38;10417802;28;20103;-55
2021/01/06 10:39:21;;;;;;;39.65;17.15;;;;;;;3.54;55.87;99633.97;10418110;28;20041;-54
2021/01/06 10:44:30;;;;;;;42.67;16.73;;;;;;;3.45;56.46;99635.34;10417348;28;20049;-55
2021/01/06 10:49:52;;;;;;;43.00;16.85;;;;;;;3.29;55.95;99650.09;10417050;28;20107;-53
2021/01/06 10:55:20;;;;;;;42.42;18.58;;;;;;;2.99;56.16;99643.94;10416634;28;20501;-53
2021/01/06 11:00:23;;;;;;;39.83;19.45;;;;;;;2.97;56.48;99642.34;10417114;28;20115;-53
2021/01/06 11:05:29;;;;;;;43.25;17.73;;;;;;;3.02;56.03;99629.97;10417133;28;20540;-55
2021/01/06 11:10:55;;;;;;;40.53;17.00;;;;;;;2.78;56.32;99619.16;10432271;28;20045;-54
2021/01/06 11:16:05;;;;;;;41.65;17.75;;;;;;;2.72;56.42;99617.72;10416286;28;20055;-55
2021/01/06 11:21:15;;;;;;;43.40;17.42;;;;;;;2.71;56.18;99620.38;10417176;28;20371;-57
2021/01/06 11:26:52;;;;;;;38.45;17.25;;;;;;;2.79;56.04;99619.97;10417464;28;20406;-56
2021/01/06 11:32:35;;;;;;;35.28;15.68;;;;;;;2.81;56.34;99606.00;10416338;28;20060;-55
2021/01/06 11:37:40;;;;;;;39.35;15.05;;;;;;;2.75;56.08;99596.78;10418150;28;20079;-54
2021/01/06 11:42:49;;;;;;;37.92;15.35;;;;;;;2.72;55.86;99604.75;10424065;28;20056;-56
2021/01/06 11:47:55;;;;;;;38.40;16.92;;;;;;;2.66;56.32;99597.28;10424733;28;20471;-59
2021/01/06 11:53:11;;;;;;;38.88;15.40;;;;;;;2.50;56.40;99596.44;10424613;28;20386;-55
2021/01/06 11:58:26;;;;;;;35.17;15.70;;;;;;;2.46;56.50;99605.28;10422616;28;20077;-56
2021/01/06 12:03:41;;;;;;;32.58;14.68;;;;;;;2.59;56.41;99627.09;10422754;28;20474;-53
2021/01/06 12:08:59;;;;;;;41.15;17.13;;;;;;;2.56;56.06;99616.88;10422569;28;20045;-56
2021/01/06 12:14:22;;;;;;;29.50;11.45;;;;;;;2.37;55.86;99634.31;10422695;28;20467;-55
2021/01/06 12:19:34;;;;;;;27.73;12.52;;;;;;;2.29;56.47;99635.56;10422309;28;20064;-54
2021/01/06 12:25:01;;;;;;;32.47;12.55;;;;;;;2.19;55.89;99636.97;10422376;28;20068;-55
2021/01/06 12:30:33;;;;;;;32.45;14.52;;;;;;;1.68;56.12;99640.44;10415893;28;20363;-53
2021/01/06 12:35:39;;;;;;;28.48;12.98;;;;;;;1.48;57.12;99633.63;10397790;28;20053;-56
2021/01/06 12:40:58;;;;;;;25.80;11.52;;;;;;;1.27;56.84;99648.50;10423171;28;20130;-55
2021/01/06 12:46:06;;;;;;;26.88;11.05;;;;;;;1.15;56.64;99648.16;10422274;28;20056;-53
2021/01/06 12:51:17;;;;;;;23.92;10.00;;;;;;;1.26;57.19;99651.97;10418908;28;20068;-55
2021/01/06 12:56:27;;;;;;;22.98;10.15;;;;;;;1.40;56.76;99649.56;10421274;28;20057;-55
2021/01/06 13:01:41;;;;;;;25.85;10.65;;;;;;;1.43;56.48;99643.41;10420565;28;20064;-55
2021/01/06 13:06:47;;;;;;;22.48;8.57;;;;;;;1.38;56.85;99644.44;10421240;28;20383;-54
2021/01/06 13:11:57;;;;;;;17.27;7.20;;;;;;;1.29;57.21;99641.47;10421058;28;20477;-58
2021/01/06 13:17:04;;;;;;;16.85;8.23;;;;;;;1.18;57.66;99647.19;10420071;28;20052;-55
2021/01/06 13:22:20;;;;;;;16.88;7.88;;;;;;;1.06;57.70;99640.81;10419766;28;20064;-55
2021/01/06 13:27:40;;;;;;;19.85;7.70;;;;;;;1.14;57.37;99643.91;10420555;28;20073;-54
2021/01/06 13:32:50;;;;;;;21.63;8.43;;;;;;;1.13;57.60;99649.97;10420388;28;20045;-54
2021/01/06 13:38:06;;;;;;;18.02;6.57;;;;;;;1.14;57.47;99643.91;10419643;28;20042;-54
2021/01/06 13:43:22;;;;;;;14.18;6.50;;;;;;;1.23;57.52;99652.97;10419946;28;20041;-54
2021/01/06 13:49:05;;;;;;;12.75;5.65;;;;;;;1.19;57.23;99656.63;10418484;28;20041;-54
2021/01/06 13:54:23;;;;;;;18.30;7.10;;;;;;;1.10;56.68;99654.44;10386988;28;20103;-55
2021/01/06 13:59:36;;;;;;;13.90;6.43;;;;;;;0.96;56.58;99649.09;10418771;28;20057;-54
2021/01/06 14:04:47;;;;;;;15.23;6.17;;;;;;;0.87;56.77;99646.03;10418735;28;20184;-56
2021/01/06 14:10:01;;;;;;;15.20;6.63;;;;;;;0.87;56.90;99643.44;10417736;28;20045;-53
2021/01/06 14:15:28;;;;;;;15.38;7.20;;;;;;;0.92;57.20;99638.03;10418734;28;20045;-54
2021/01/06 14:20:46;;;;;;;14.70;6.00;;;;;;;1.06;56.83;99640.00;10415408;28;20354;-56
2021/01/06 14:26:32;;;;;;;16.80;5.57;;;;;;;0.96;57.25;99634.41;10417974;28;20140;-54
2021/01/06 14:31:37;;;;;;;16.05;6.65;;;;;;;0.82;57.02;99631.63;10417927;28;20473;-55
2021/01/06 14:36:47;;;;;;;17.75;7.57;;;;;;;0.80;56.65;99636.88;10416927;28;20041;-54
2021/01/06 14:42:04;;;;;;;13.95;6.40;;;;;;;0.66;56.69;99649.59;10416783;28;20056;-55
2021/01/06 14:47:25;;;;;;;17.13;7.70;;;;;;;0.68;57.27;99640.03;10417561;28;20382;-55
2021/01/06 14:52:31;;;;;;;16.65;6.65;;;;;;;0.74;56.79;99629.41;10416844;28;20049;-54
2021/01/06 14:57:47;;;;;;;16.60;7.82;;;;;;;0.71;57.04;99645.06;10416958;28;20045;-56
2021/01/06 15:03:14;;;;;;;12.48;5.57;;;;;;;0.75;57.20;99633.66;10416648;28;20065;-54
2021/01/06 15:08:23;;;;;;;15.30;7.70;;;;;;;0.78;57.18;99632.66;10417993;28;20064;-54
2021/01/06 15:13:26;;;;;;;14.98;6.70;;;;;;;0.85;56.79;99632.31;10423310;28;20046;-54
2021/01/06 15:18:30;;;;;;;16.53;6.67;;;;;;;0.94;56.99;99625.88;10425498;28;20430;-54
2021/01/06 15:23:35;;;;;;;19.25;7.60;;;;;;;0.95;57.16;99627.53;10425443;28;20296;-54
2021/01/06 15:28:45;;;;;;;16.02;7.75;;;;;;;1.13;56.67;99628.41;10423694;28;20045;-54
2021/01/06 15:33:54;;;;;;;20.88;8.65;;;;;;;1.17;56.19;99622.22;10423987;28;20049;-55
2021/01/06 15:39:01;;;;;;;15.18;6.93;;;;;;;1.12;56.19;99618.97;10423822;28;20387;-54
2021/01/06 15:44:06;;;;;;;13.77;6.10;;;;;;;1.06;56.15;99624.47;10424815;28;20081;-55
2021/01/06 15:49:17;;;;;;;17.40;7.57;;;;;;;1.04;56.48;99621.09;10423235;28;20060;-54
2021/01/06 15:54:23;;;;;;;16.83;7.63;;;;;;;1.09;56.77;99621.72;10424411;28;20049;-54
2021/01/06 15:59:30;;;;;;;21.25;7.70;;;;;;;1.05;56.31;99613.25;10439000;28;20434;-55
2021/01/06 16:04:36;;;;;;;18.73;8.32;;;;;;;1.02;56.18;99603.06;10424325;28;20060;-55
2021/01/06 16:09:38;;;;;;;15.98;7.18;;;;;;;1.15;56.62;99598.13;10423254;28;20053;-54
2021/01/06 16:14:43;;;;;;;14.32;6.82;;;;;;;1.28;56.41;99588.84;10421977;28;20053;-54
2021/01/06 16:19:48;;;;;;;17.38;7.78;;;;;;;1.37;56.36;99593.56;10421745;28;20037;-55
2021/01/06 16:24:50;;;;;;;16.92;7.68;;;;;;;1.42;55.89;99587.31;10421457;28;20056;-54
2021/01/06 16:30:09;;;;;;;15.63;7.63;;;;;;;1.35;56.02;99595.38;10422644;28;20080;-52
2021/01/06 16:35:20;;;;;;;18.98;8.15;;;;;;;1.25;55.81;99594.16;10422228;28;20054;-55
2021/01/06 16:40:23;;;;;;;16.83;7.82;;;;;;;1.19;55.98;99588.44;10421371;28;20427;-54
2021/01/06 16:45:28;;;;;;;18.73;7.88;;;;;;;1.14;56.17;99584.34;10421655;28;20155;-55
2021/01/06 16:50:33;;;;;;;16.80;8.63;;;;;;;1.11;56.16;99591.44;10423107;28;20102;-56
2021/01/06 16:55:37;;;;;;;22.38;9.23;;;;;;;1.15;55.65;99588.59;10420798;28;20073;-55
2021/01/06 17:00:43;;;;;;;17.13;7.50;;;;;;;1.19;56.32;99593.63;10421449;28;20061;-56
2021/01/06 17:05:48;;;;;;;19.13;8.07;;;;;;;1.33;56.05;99584.28;10420988;28;20095;-54
2021/01/06 17:10:50;;;;;;;21.83;9.25;;;;;;;1.42;55.56;99580.41;10421166;28;20053;-55
2021/01/06 17:15:59;;;;;;;18.73;9.68;;;;;;;1.33;55.75;99573.94;10421755;28;20103;-54
2021/01/06 17:21:05;;;;;;;23.40;10.57;;;;;;;1.32;55.82;99571.41;10420993;28;20386;-56
2021/01/06 17:26:14;;;;;;;25.13;10.68;;;;;;;1.16;56.10;99563.53;10421457;28;20045;-56
2021/01/06 17:31:23;;;;;;;21.05;9.57;;;;;;;1.07;56.10;99564.81;10420240;28;20049;-54
2021/01/06 17:36:24;;;;;;;21.67;9.73;;;;;;;1.06;56.24;99568.34;10419438;28;20144;-55
2021/01/06 17:41:38;;;;;;;19.50;7.93;;;;;;;1.11;56.33;99574.13;10419481;28;20056;-54
2021/01/06 17:46:42;;;;;;;20.35;8.77;;;;;;;0.90;55.88;99572.56;10419660;28;20057;-56
2021/01/06 17:51:44;;;;;;;23.52;11.15;;;;;;;0.84;56.32;99568.53;10419342;28;20053;-56
2021/01/06 17:56:48;;;;;;;24.08;10.35;;;;;;;0.95;55.97;99572.34;10418967;28;20041;-54
2021/01/06 18:01:50;;;;;;;;;;;;;;;1.02;56.18;99571.16;10434905;28;20085;-55
2021/01/06 18:07:02;;;;;;;21.65;9.48;;;;;;;0.98;55.97;99572.19;10418899;28;19924;-54
2021/01/06 18:12:09;;;;;;;23.17;9.70;;;;;;;0.88;56.06;99571.81;10419638;28;20084;-55
2021/01/06 18:17:11;;;;;;;22.52;9.68;;;;;;;0.90;56.09;99576.00;10434037;28;20509;-54
2021/01/06 18:22:13;;;;;;;20.60;9.55;;;;;;;0.82;56.09;99574.69;10418214;28;20060;-55
2021/01/06 18:27:16;;;;;;;23.38;10.73;;;;;;;0.88;56.10;99575.22;10417822;28;20049;-54
2021/01/06 18:32:20;;;;;;;19.52;8.27;;;;;;;0.91;56.24;99584.59;10417380;28;20473;-55
2021/01/06 18:37:24;;;;;;;24.25;10.40;;;;;;;0.90;56.47;99578.59;10417722;28;20159;-53
2021/01/06 18:42:28;;;;;;;23.73;9.23;;;;;;;0.96;56.33;99572.28;10417387;28;20069;-55
2021/01/06 18:47:30;;;;;;;20.83;9.18;;;;;;;0.88;56.27;99583.00;10421027;28;20139;-54
2021/01/06 18:52:31;;;;;;;22.80;9.13;;;;;;;0.77;56.65;99582.69;10425792;28;20370;-54
2021/01/06 18:57:39;;;;;;;23.42;10.20;;;;;;;0.59;56.61;99594.72;10426838;28;20050;-60
2021/01/06 19:02:45;;;;;;;19.15;9.63;;;;;;;0.61;56.40;99598.03;10427178;28;20065;-54
2021/01/06 19:07:58;;;;;;;21.17;9.73;;;;;;;0.65;56.72;99594.44;10427219;28;20049;-56
2021/01/06 19:13:02;;;;;;;19.67;8.48;;;;;;;0.33;56.31;99605.38;10427817;28;20493;-55
2021/01/06 19:18:04;;;;;;;20.05;9.00;;;;;;;0.06;56.84;99605.69;10428274;28;20041;-54
2021/01/06 19:23:07;;;;;;;25.50;9.75;;;;;;;0.13;57.27;99599.38;10427494;28;20110;-54
2021/01/06 19:28:11;;;;;;;27.13;11.10;;;;;;;0.02;57.05;99600.72;10426766;28;20076;-53
2021/01/06 19:33:17;;;;;;;25.48;9.45;;;;;;;0.16;57.26;99606.97;10425736;28;20299;-55
2021/01/06 19:38:21;;;;;;;21.63;10.07;;;;;;;0.20;56.36;99610.25;10440712;28;20076;-53
2021/01/06 19:43:24;;;;;;;20.70;10.48;;;;;;;0.20;56.86;99624.03;10425279;28;20049;-55
2021/01/06 19:48:26;;;;;;;22.95;11.38;;;;;;;0.33;56.98;99618.31;10424028;28;20049;-53
2021/01/06 19:53:33;;;;;;;22.90;10.82;;;;;;;0.45;56.71;99613.44;10423706;28;20103;-54
2021/01/06 19:58:37;;;;;;;24.45;10.07;;;;;;;0.42;56.73;99618.75;10423366;28;20063;-55
2021/01/06 20:03:39;;;;;;;22.38;9.02;;;;;;;0.34;57.00;99623.44;10424533;28;20065;-58
2021/01/06 20:09:02;;;;;;;21.90;8.95;;;;;;;0.33;57.41;99607.97;10423805;28;20049;-53
2021/01/06 20:14:10;;;;;;;22.55;9.77;;;;;;;0.34;57.40;99620.84;10418309;28;20062;-55
2021/01/06 20:19:12;;;;;;;19.65;9.80;;;;;;;0.48;57.15;99621.97;10424265;28;20049;-54
2021/01/06 20:24:14;;;;;;;17.08;7.70;;;;;;;0.54;57.35;99616.50;10422703;28;20057;-55
2021/01/06 20:29:16;;;;;;;18.60;8.55;;;;;;;0.52;56.74;99603.63;10422266;28;20033;-54
2021/01/06 20:34:18;;;;;;;20.80;8.80;;;;;;;0.58;57.16;99603.34;10422522;28;20114;-55
2021/01/06 20:39:20;;;;;;;20.60;9.70;;;;;;;0.62;57.20;99598.91;10421792;28;20053;-55
2021/01/06 20:44:23;;;;;;;24.10;9.50;;;;;;;0.53;57.05;99600.16;10421370;28;20589;-55
2021/01/06 20:49:25;;;;;;;16.47;7.63;;;;;;;0.48;56.97;99593.50;10421975;28;20492;-58
2021/01/06 20:54:26;;;;;;;20.33;8.23;;;;;;;0.55;56.98;99592.31;10421431;28;20049;-54
2021/01/06 20:59:29;;;;;;;21.27;10.15;;;;;;;0.79;56.65;99590.34;10420413;28;20061;-53
2021/01/06 21:04:30;;;;;;;20.20;8.55;;;;;;;0.87;56.35;99589.09;10421818;28;20149;-55
2021/01/06 21:09:32;;;;;;;22.20;9.68;;;;;;;0.91;56.34;99590.59;10421430;28;20046;-54
2021/01/06 21:14:35;;;;;;;21.35;10.48;;;;;;;0.84;56.19;99589.22;10419736;28;20064;-56
2021/01/06 21:19:38;;;;;;;22.85;10.13;;;;;;;0.81;56.14;99588.53;10419746;28;20080;-53
2021/01/06 21:24:40;;;;;;;21.48;9.48;;;;;;;0.58;56.06;99587.00;10419341;28;20064;-54
2021/01/06 21:29:43;;;;;;;24.42;10.27;;;;;;;0.29;56.93;99589.19;10419109;28;20060;-54
2021/01/06 21:34:44;;;;;;;23.65;10.73;;;;;;;0.15;56.79;99596.69;10418879;28;20064;-55
2021/01/06 21:39:47;;;;;;;27.75;11.30;;;;;;;0.24;56.32;99596.28;10419098;28;20072;-57
2021/01/06 21:44:50;;;;;;;20.92;10.40;;;;;;;0.32;56.61;99590.78;10419410;28;20045;-54
2021/01/06 21:49:52;;;;;;;23.90;10.93;;;;;;;0.36;56.87;99584.56;10419441;28;20076;-54
2021/01/06 21:54:54;;;;;;;21.55;9.25;;;;;;;0.40;56.59;99584.38;10435242;28;20053;-54
2021/01/06 21:59:56;;;;;;;21.70;9.55;;;;;;;0.43;56.71;99579.06;10434279;28;20053;-55
2021/01/06 22:04:58;;;;;;;23.77;9.45;;;;;;;0.34;56.72;99579.47;10420156;28;20107;-55
2021/01/06 22:10:00;;;;;;;25.85;9.77;;;;;;;0.29;56.33;99580.59;10418569;28;20064;-53
2021/01/06 22:15:03;;;;;;;25.83;11.27;;;;;;;0.25;56.57;99569.53;10418598;28;20049;-56
2021/01/06 22:20:07;;;;;;;25.23;10.13;;;;;;;0.19;56.47;99562.06;10417972;28;20042;-54
2021/01/06 22:25:12;;;;;;;18.90;8.30;;;;;;;0.01;55.77;99566.31;10418684;28;20126;-54
2021/01/06 22:30:15;;;;;;;30.95;13.27;;;;;;;-0.10;56.12;99555.59;10418982;28;20046;-57
2021/01/06 22:35:17;;;;;;;31.55;12.77;;;;;;;-0.20;56.16;99547.41;10437164;28;20050;-54
2021/01/06 22:40:19;;;;;;;30.10;15.25;;;;;;;-0.18;56.32;99545.59;10433982;28;20469;-53
2021/01/06 22:45:21;;;;;;;31.88;13.65;;;;;;;-0.06;56.20;99539.91;10416572;28;20045;-54
2021/01/06 22:50:23;;;;;;;30.25;12.88;;;;;;;-0.01;56.40;99526.75;10417140;28;20494;-55
2021/01/06 22:55:24;;;;;;;25.92;11.30;;;;;;;0.03;56.39;99527.44;10417512;28;20076;-54
2021/01/06 23:00:29;;;;;;;22.17;8.85;;;;;;;-0.13;55.83;99528.13;10417472;28;20141;-53
2021/01/06 23:05:31;;;;;;;35.05;15.93;;;;;;;-0.30;55.74;99520.31;10416712;28;20060;-54
2021/01/06 23:10:32;;;;;;;40.85;16.85;;;;;;;-0.42;55.83;99520.84;10416400;28;20474;-55
2021/01/06 23:15:35;;;;;;;16.63;6.75;;;;;;;-0.52;55.30;99523.81;10419258;28;20045;-53
2021/01/06 23:20:36;;;;;;;32.72;13.20;;;;;;;-0.69;55.68;99523.66;10418801;28;20053;-54
2021/01/06 23:25:38;;;;;;;44.03;18.60;;;;;;;-0.68;55.80;99527.91;10432996;28;20144;-54
2021/01/06 23:30:41;;;;;;;28.40;10.85;;;;;;;-0.57;56.15;99518.00;10417050;28;20057;-53
2021/01/06 23:35:42;;;;;;;39.45;16.25;;;;;;;-0.47;55.97;99514.09;10421974;28;20053;-54
2021/01/06 23:40:44;;;;;;;62.78;20.85;;;;;;;-0.35;55.79;99520.47;10423954;28;20084;-55
2021/01/06 23:45:46;;;;;;;30.35;11.10;;;;;;;-0.37;55.84;99522.31;10440368;28;20049;-53